Time;durP1;ratioP1;P1;durP2;ratioP2;P2;SDS_P1;SDS_P2;PMS_P1;PMS_P2;Temp;Humidity;BMP_temperature;BMP_pressure;BME280_temperature;BME280_humidity;BME280_pressure;Samples;Min_cycle;Max_cycle;Signal;HPM_P1;HPM_P2
2023/08/08 00:04:19;;;;;;;2.40;2.20;;;;;;;14.89;52.05;99776.84;10323919;28;20333;-69
2023/08/08 00:09:21;;;;;;;3.67;2.30;;;;;;;15.20;51.37;99753.72;10326534;28;20236;-69
2023/08/08 00:14:24;;;;;;;2.47;2.27;;;;;;;15.22;51.00;99778.59;10323881;28;20242;-69
2023/08/08 00:19:25;;;;;;;3.83;2.30;;;;;;;15.93;49.93;99783.97;10365281;28;20287;-69
2023/08/08 00:24:27;;;;;;;2.37;1.83;;;;;;;15.37;51.34;99761.28;10362665;28;20229;-69
2023/08/08 00:29:29;;;;;;;2.60;2.40;;;;;;;14.94;52.13;99793.19;10360874;28;20213;-69
2023/08/08 00:34:31;;;;;;;2.17;1.97;;;;;;;14.50;53.48;99772.41;10353423;28;20233;-69
2023/08/08 00:39:32;;;;;;;4.23;2.37;;;;;;;15.01;52.08;99714.22;10322012;28;21002;-69
2023/08/08 00:44:34;;;;;;;4.47;2.50;;;;;;;15.24;51.57;99770.28;10322616;28;20241;-69
2023/08/08 00:49:37;;;;;;;3.57;2.20;;;;;;;14.77;52.49;99816.25;10361691;28;20961;-69
2023/08/08 00:54:39;;;;;;;2.63;2.40;;;;;;;15.07;52.00;99794.22;10362483;28;20783;-69
2023/08/08 00:59:40;;;;;;;3.77;2.20;;;;;;;14.97;51.85;99831.56;10365756;28;20213;-69
2023/08/08 01:04:43;;;;;;;3.20;2.40;;;;;;;15.28;51.34;99803.84;10364156;28;20328;-69
2023/08/08 01:10:04;;;;;;;8.77;2.10;;;;;;;15.75;50.53;99769.34;10364627;28;20292;-69
2023/08/08 01:15:08;;;;;;;4.57;2.10;;;;;;;14.94;52.03;99838.19;10327339;28;20237;-69
2023/08/08 01:20:13;;;;;;;3.10;2.70;;;;;;;14.72;52.76;99805.28;10327038;28;20234;-69
2023/08/08 01:25:15;;;;;;;3.60;2.67;;;;;;;14.89;51.96;99801.09;10328611;28;20367;-69
2023/08/08 01:30:17;;;;;;;3.47;2.40;;;;;;;14.70;52.67;99778.56;10367956;28;20310;-69
2023/08/08 01:35:19;;;;;;;2.57;2.37;;;;;;;14.90;51.97;99864.72;10364294;28;20233;-68
2023/08/08 01:40:22;;;;;;;2.40;2.20;;;;;;;15.69;51.04;99746.78;10366237;28;20239;-69
2023/08/08 01:45:24;;;;;;;3.33;2.50;;;;;;;15.33;51.24;99788.69;10362006;28;20319;-69
2023/08/08 01:50:26;;;;;;;2.37;2.10;;;;;;;15.68;50.94;99763.19;10365485;28;20283;-69
2023/08/08 01:55:28;;;;;;;2.77;2.30;;;;;;;15.11;52.11;99785.47;10365793;28;20239;-69
2023/08/08 02:00:30;;;;;;;3.57;2.67;;;;;;;14.86;52.93;99793.44;10366717;28;20687;-69
2023/08/08 02:05:32;;;;;;;3.27;2.30;;;;;;;14.73;52.54;99817.72;10379830;28;20263;-69
2023/08/08 02:10:34;;;;;;;3.23;2.43;;;;;;;15.27;52.15;99734.81;10361571;28;20720;-69
2023/08/08 02:15:35;;;;;;;2.37;2.13;;;;;;;15.02;52.15;99821.78;10360301;28;20237;-69
2023/08/08 02:20:37;;;;;;;2.77;2.40;;;;;;;14.98;52.83;99744.28;10358631;28;20362;-69
2023/08/08 02:25:39;;;;;;;4.10;2.30;;;;;;;15.21;52.24;99724.88;10360868;28;20339;-68
2023/08/08 02:30:41;;;;;;;2.33;2.13;;;;;;;14.35;53.29;99872.22;10359463;28;20320;-69
2023/08/08 02:35:42;;;;;;;2.57;2.37;;;;;;;14.60;52.52;99861.66;10350882;28;20732;-69
2023/08/08 02:40:44;;;;;;;2.70;2.50;;;;;;;14.92;52.18;99806.06;10324474;28;20261;-69
2023/08/08 02:45:46;;;;;;;2.47;2.20;;;;;;;14.94;52.35;99779.72;10320775;28;20661;-69
2023/08/08 02:50:48;;;;;;;3.27;2.30;;;;;;;14.40;53.09;99850.91;10320695;28;20238;-69
2023/08/08 02:55:49;;;;;;;2.90;2.30;;;;;;;14.19;52.90;99916.53;10315396;28;20237;-69
2023/08/08 03:00:52;;;;;;;3.13;2.80;;;;;;;14.55;53.12;99805.72;10315732;28;20293;-69
2023/08/08 03:05:54;;;;;;;2.93;2.40;;;;;;;14.58;52.72;99840.31;10325202;28;20265;-68
2023/08/08 03:10:55;;;;;;;3.30;2.80;;;;;;;14.36;52.75;99863.13;10361164;28;20308;-68
2023/08/08 03:15:57;;;;;;;2.50;2.30;;;;;;;14.68;52.40;99822.91;10355606;28;20668;-69
2023/08/08 03:20:59;;;;;;;2.67;2.47;;;;;;;15.13;51.64;99751.06;10352843;28;20380;-68
2023/08/08 03:26:01;;;;;;;2.50;2.23;;;;;;;14.87;51.19;99840.91;10352395;28;20244;-69
2023/08/08 03:31:03;;;;;;;3.03;2.70;;;;;;;14.86;51.87;99793.44;10355582;28;20252;-69
2023/08/08 03:36:05;;;;;;;3.20;2.33;;;;;;;14.88;51.78;99814.78;10351214;28;20324;-67
2023/08/08 03:41:08;;;;;;;2.83;2.63;;;;;;;15.11;51.43;99788.16;10349926;28;20282;-69
2023/08/08 03:46:11;;;;;;;3.07;2.80;;;;;;;14.45;52.15;99861.88;10336371;28;20311;-69
2023/08/08 03:51:13;;;;;;;3.10;2.47;;;;;;;14.06;53.13;99873.44;10310070;28;20316;-69
2023/08/08 03:56:15;;;;;;;4.47;2.60;;;;;;;14.32;52.94;99829.56;10309661;28;20241;-69
2023/08/08 04:01:17;;;;;;;2.40;2.20;;;;;;;13.99;53.10;99876.13;10311200;28;20325;-68
2023/08/08 04:06:18;;;;;;;2.60;2.30;;;;;;;12.86;55.45;99957.06;10323496;28;20236;-69
2023/08/08 04:11:20;;;;;;;2.90;2.60;;;;;;;13.46;54.83;99882.16;10353013;28;20239;-69
2023/08/08 04:16:22;;;;;;;3.07;2.63;;;;;;;14.30;53.70;99773.25;10356323;28;20241;-69
2023/08/08 04:21:28;;;;;;;2.63;2.20;;;;;;;13.99;53.53;99862.66;10359631;28;20225;-69
2023/08/08 04:26:30;;;;;;;2.60;2.40;;;;;;;14.99;52.33;99762.13;10358951;28;20241;-68
2023/08/08 04:31:32;;;;;;;2.60;2.40;;;;;;;13.92;53.96;99877.94;10361123;28;20233;-69
2023/08/08 04:36:34;;;;;;;2.67;2.20;;;;;;;14.64;52.87;99787.47;10342172;28;20246;-68
2023/08/08 04:41:35;;;;;;;3.33;2.30;;;;;;;14.13;53.56;99829.38;10319391;28;21213;-69
2023/08/08 04:46:38;;;;;;;2.93;2.70;;;;;;;14.11;53.98;99819.88;10335283;28;20736;-68
2023/08/08 04:51:40;;;;;;;4.03;2.73;;;;;;;13.28;55.42;99920.34;10358931;28;20845;-69
2023/08/08 04:56:41;;;;;;;2.70;2.50;;;;;;;14.61;53.12;99777.16;10357552;28;20344;-68
2023/08/08 05:01:43;;;;;;;3.40;2.80;;;;;;;13.81;54.77;99853.31;10355304;28;20798;-69
2023/08/08 05:06:46;;;;;;;3.27;2.83;;;;;;;14.68;53.53;99783.31;10359185;28;20294;-68
2023/08/08 05:11:47;;;;;;;3.90;2.90;;;;;;;14.31;53.57;99833.31;10337266;28;20230;-69
2023/08/08 05:16:49;;;;;;;2.37;2.17;;;;;;;14.02;54.49;99838.88;10316128;28;20791;-68
2023/08/08 05:21:51;;;;;;;3.50;3.20;;;;;;;14.14;54.39;99859.81;10338654;28;20263;-69
2023/08/08 05:26:53;;;;;;;2.73;2.30;;;;;;;14.29;53.96;99884.66;10356924;28;20237;-69
2023/08/08 05:31:55;;;;;;;3.87;2.57;;;;;;;14.47;53.80;99877.81;10359203;28;20251;-69
2023/08/08 05:36:56;;;;;;;2.53;2.33;;;;;;;14.40;53.93;99862.47;10358888;28;20248;-69
2023/08/08 05:42:17;;;;;;;2.67;2.40;;;;;;;14.11;54.29;99922.94;10359658;28;20251;-69
2023/08/08 05:47:19;;;;;;;2.53;2.33;;;;;;;14.26;54.05;99900.41;10359927;28;20233;-69
2023/08/08 05:52:21;;;;;;;2.57;2.33;;;;;;;14.56;53.42;99896.25;10356194;28;20317;-68
2023/08/08 05:57:23;;;;;;;2.33;2.13;;;;;;;15.61;52.37;99760.53;10339112;28;20237;-69
2023/08/08 06:02:25;;;;;;;2.97;2.70;;;;;;;15.46;52.11;99847.09;10340792;28;20248;-69
2023/08/08 06:07:27;;;;;;;3.07;2.00;;;;;;;14.82;52.82;99972.72;10356924;28;20241;-69
2023/08/08 06:12:29;;;;;;;3.30;2.13;;;;;;;15.43;52.72;99854.78;10353437;28;20346;-69
2023/08/08 06:17:31;;;;;;;2.07;1.93;;;;;;;15.79;51.59;99869.56;10354983;28;20585;-69
2023/08/08 06:22:32;;;;;;;3.87;2.20;;;;;;;15.60;51.40;99992.69;10333624;28;20234;-68
2023/08/08 06:27:34;;;;;;;3.97;2.20;;;;;;;16.52;50.39;99904.16;10343072;28;20625;-69
2023/08/08 06:32:36;;;;;;;4.10;2.30;;;;;;;16.52;49.99;99924.94;10360519;28;20253;-68
2023/08/08 06:37:38;;;;;;;3.37;2.83;;;;;;;16.17;50.73;99907.28;10358463;28;20237;-69
2023/08/08 06:42:40;;;;;;;4.10;2.73;;;;;;;16.15;50.64;99943.66;10332937;28;20347;-69
2023/08/08 06:47:42;;;;;;;3.70;2.60;;;;;;;16.35;50.54;99930.06;10344069;28;20229;-68
2023/08/08 06:52:43;;;;;;;5.83;2.63;;;;;;;17.09;49.05;99892.38;10358541;28;20229;-68
2023/08/08 06:57:46;;;;;;;3.83;2.33;;;;;;;16.24;50.56;99912.66;10351495;28;20233;-68
2023/08/08 07:02:47;;;;;;;3.20;2.30;;;;;;;16.32;51.07;99895.38;10323919;28;20250;-68
2023/08/08 07:07:50;;;;;;;2.30;2.10;;;;;;;15.79;51.18;99981.00;10345990;28;20323;-69
2023/08/08 07:12:52;;;;;;;2.67;2.40;;;;;;;16.51;50.21;99967.31;10355724;28;20233;-69
2023/08/08 07:17:54;;;;;;;4.10;2.10;;;;;;;17.05;49.60;99899.31;10350998;28;20229;-68
2023/08/08 07:22:55;;;;;;;2.10;1.73;;;;;;;16.42;49.97;100047.78;10321486;28;20233;-69
2023/08/08 07:27:57;;;;;;;4.43;2.30;;;;;;;17.10;49.23;99910.25;10341620;28;22362;-69
2023/08/08 07:32:59;;;;;;;2.20;2.00;;;;;;;16.84;49.63;99944.59;10329451;28;20233;-69
2023/08/08 07:38:01;;;;;;;2.47;1.90;;;;;;;17.11;49.61;99890.31;10344120;28;20720;-69
2023/08/08 07:43:03;;;;;;;3.63;1.80;;;;;;;16.56;49.98;99942.34;10350769;28;20260;-68
2023/08/08 07:48:05;;;;;;;3.33;2.00;;;;;;;17.46;48.90;99890.50;10331641;28;20295;-68
2023/08/08 07:53:07;;;;;;;2.07;1.90;;;;;;;17.22;49.21;99910.34;10326082;28;20240;-69
2023/08/08 07:58:09;;;;;;;2.03;1.93;;;;;;;17.24;49.19;99871.22;10319404;28;20226;-68
2023/08/08 08:03:10;;;;;;;3.03;1.90;;;;;;;16.71;49.26;99993.34;10321887;28;20631;-69
2023/08/08 08:08:12;;;;;;;2.10;2.00;;;;;;;18.49;47.03;99878.81;10321388;28;20708;-69
2023/08/08 08:13:14;;;;;;;1.93;1.50;;;;;;;17.73;46.95;99976.75;10326623;28;20299;-68
2023/08/08 08:18:17;;;;;;;3.60;2.27;;;;;;;19.26;45.80;99872.38;10354128;28;20317;-69
2023/08/08 08:23:20;;;;;;;2.43;1.80;;;;;;;17.94;46.98;99985.47;10359168;28;20712;-68
2023/08/08 08:28:22;;;;;;;2.77;1.90;;;;;;;18.58;46.00;99939.72;10354150;28;20315;-68
2023/08/08 08:33:24;;;;;;;2.73;2.20;;;;;;;17.90;47.97;99995.91;10362001;28;20240;-68
2023/08/08 08:38:25;;;;;;;4.33;2.10;;;;;;;18.48;47.17;99925.94;10354990;28;20752;-69
2023/08/08 08:43:27;;;;;;;4.03;2.17;;;;;;;18.33;46.89;99872.22;10336883;28;20356;-69
2023/08/08 08:48:31;;;;;;;3.83;1.70;;;;;;;17.66;46.79;99924.59;10331796;28;20225;-68
2023/08/08 08:53:34;;;;;;;2.23;2.00;;;;;;;18.28;45.94;99887.25;10330933;28;20238;-69
2023/08/08 08:58:36;;;;;;;2.03;1.70;;;;;;;18.02;45.90;99893.09;10347215;28;20285;-68
2023/08/08 09:03:39;;;;;;;2.50;1.73;;;;;;;19.14;44.96;99835.25;10331589;28;20269;-68
2023/08/08 09:08:41;;;;;;;2.73;1.90;;;;;;;19.05;45.09;99868.41;10319229;28;20233;-68
2023/08/08 09:13:42;;;;;;;2.53;1.80;;;;;;;18.66;44.59;99904.16;10323332;28;20272;-68
2023/08/08 09:18:44;;;;;;;5.87;1.80;;;;;;;18.96;43.60;99874.22;10322790;28;20238;-68
2023/08/08 09:23:47;;;;;;;1.63;1.52;;;;;;;19.17;44.21;99875.47;10319171;28;20232;-68
2023/08/08 09:28:50;;;;;;;3.28;1.83;;;;;;;19.24;44.17;99859.06;10320991;28;20308;-68
2023/08/08 09:33:54;;;;;;;1.50;1.20;;;;;;;18.52;44.34;99829.56;10313912;28;20317;-68
2023/08/08 09:38:56;;;;;;;3.73;1.70;;;;;;;18.39;44.19;99904.63;10355863;28;20308;-68
2023/08/08 09:44:00;;;;;;;2.90;1.60;;;;;;;18.32;43.63;99865.97;10356012;28;20239;-68
2023/08/08 09:49:03;;;;;;;2.20;1.60;;;;;;;17.97;42.61;99839.63;10365851;28;20257;-68
2023/08/08 09:54:06;;;;;;;1.93;1.70;;;;;;;19.28;42.57;99799.72;10361973;28;20232;-69
2023/08/08 09:59:09;;;;;;;1.60;1.43;;;;;;;17.80;43.09;99914.41;10321719;28;20229;-68
2023/08/08 10:04:12;;;;;;;2.17;1.65;;;;;;;19.17;42.59;99796.00;10320985;28;20272;-69
2023/08/08 10:09:15;;;;;;;1.60;1.50;;;;;;;19.44;42.18;99812.50;10324998;28;20232;-69
2023/08/08 10:14:17;;;;;;;2.45;1.30;;;;;;;19.27;41.45;99877.56;10321238;28;20365;-68
2023/08/08 10:19:22;;;;;;;2.17;1.50;;;;;;;19.17;41.39;99794.09;10317013;28;20256;-71
2023/08/08 10:24:24;;;;;;;3.05;1.70;;;;;;;19.05;40.46;99863.84;10311618;28;20252;-69
2023/08/08 10:29:27;;;;;;;2.67;1.50;;;;;;;18.62;40.65;99802.69;10358706;28;20299;-70
2023/08/08 10:34:42;;;;;;;2.53;1.42;;;;;;;18.87;39.72;99863.97;10363964;28;20232;-69
2023/08/08 10:39:53;;;;;;;2.78;1.30;;;;;;;19.49;39.55;99857.94;10358213;23;20242;-39
2023/08/08 10:44:57;;;;;;;1.58;1.48;;;;;;;19.21;40.22;99875.81;10306426;28;20297;-39
2023/08/08 10:50:11;;;;;;;2.25;1.45;;;;;;;19.58;40.46;99868.16;10299177;28;20615;-38
2023/08/08 10:55:24;;;;;;;1.52;1.42;;;;;;;19.29;40.20;99775.06;10300779;28;20226;-39
2023/08/08 11:06:18;;;;;;;1.52;1.42;;;;;;;17.95;43.35;99717.22;10397926;28;20857;-70
2023/08/08 11:11:20;;;;;;;2.33;1.52;;;;;;;17.49;42.86;99756.66;10309675;28;20237;-70
2023/08/08 11:16:22;;;;;;;1.50;1.40;;;;;;;18.26;42.79;99731.47;10311456;28;20265;-70
2023/08/08 11:21:24;;;;;;;2.13;1.45;;;;;;;18.09;41.73;99740.28;10311857;28;20615;-70
2023/08/08 11:26:27;;;;;;;2.72;1.70;;;;;;;18.50;43.01;99732.28;10308288;28;20328;-70
2023/08/08 11:31:29;;;;;;;2.55;1.50;;;;;;;19.02;42.37;99707.03;10308097;28;20252;-70
2023/08/08 11:36:33;;;;;;;1.35;1.30;;;;;;;17.73;42.24;99823.34;10310653;28;20253;-70
2023/08/08 11:41:36;;;;;;;2.17;1.70;;;;;;;19.28;41.34;99742.75;10309415;28;20292;-70
2023/08/08 11:47:00;;;;;;;1.70;1.30;;;;;;;19.89;41.35;99705.81;10307681;28;20246;-70
2023/08/08 11:52:02;;;;;;;1.13;1.10;;;;;;;18.72;41.94;99778.53;10306441;28;20265;-69
2023/08/08 11:57:04;;;;;;;1.88;1.50;;;;;;;19.33;41.04;99715.72;10307663;28;20285;-69
2023/08/08 12:02:05;;;;;;;2.70;1.35;;;;;;;20.55;40.27;99687.97;10302377;28;20333;-69
2023/08/08 12:07:08;;;;;;;2.08;1.88;;;;;;;19.91;40.03;99714.53;10306433;28;20386;-69
2023/08/08 12:12:09;;;;;;;1.25;1.15;;;;;;;18.91;39.66;99764.81;10306185;28;20222;-69
2023/08/08 12:17:12;;;;;;;2.13;1.60;;;;;;;19.16;40.47;99746.34;10284102;28;20241;-69
2023/08/08 12:22:15;;;;;;;1.70;1.60;;;;;;;20.49;39.57;99712.34;10279117;28;20839;-70
2023/08/08 12:27:16;;;;;;;3.70;1.90;;;;;;;20.81;39.63;99678.25;10280846;28;20242;-70
2023/08/08 12:32:24;;;;;;;1.50;1.40;;;;;;;20.09;39.86;99683.56;10278807;28;20234;-70
2023/08/08 12:37:26;;;;;;;2.35;1.63;;;;;;;19.98;38.88;99697.25;10277395;28;20238;-70
2023/08/08 12:42:28;;;;;;;1.60;1.50;;;;;;;20.02;38.52;99741.84;10279722;28;20864;-70
2023/08/08 12:47:31;;;;;;;3.78;1.60;;;;;;;20.89;38.89;99676.97;10280359;28;20230;-69
2023/08/08 12:52:33;;;;;;;1.65;1.55;;;;;;;20.73;38.50;99706.66;10281262;28;20258;-70
2023/08/08 12:57:35;;;;;;;1.75;1.40;;;;;;;19.72;38.19;99770.13;10276370;28;20293;-70
2023/08/08 13:02:37;;;;;;;3.33;1.40;;;;;;;20.77;38.14;99677.13;10276978;28;20797;-70
2023/08/08 13:07:39;;;;;;;3.30;1.25;;;;;;;20.96;37.56;99667.50;10277554;28;20230;-70
2023/08/08 13:12:41;;;;;;;1.52;1.30;;;;;;;20.59;36.97;99708.13;10275752;28;20327;-68
2023/08/08 13:17:43;;;;;;;1.42;1.35;;;;;;;20.38;36.80;99735.06;10275497;28;21116;-68
2023/08/08 13:22:45;;;;;;;1.65;1.40;;;;;;;21.39;37.42;99692.97;10277530;28;20226;-69
2023/08/08 13:27:47;;;;;;;2.03;1.40;;;;;;;20.47;36.87;99740.88;10274825;28;20234;-69
2023/08/08 13:32:49;;;;;;;3.55;1.38;;;;;;;20.85;36.37;99663.88;10273515;28;20238;-68
2023/08/08 13:37:52;;;;;;;2.55;1.55;;;;;;;19.61;37.29;99762.91;10277307;28;20313;-71
2023/08/08 13:42:54;;;;;;;2.00;1.75;;;;;;;20.34;36.58;99716.78;10274238;28;20437;-70
2023/08/08 13:47:55;;;;;;;1.77;1.60;;;;;;;21.21;36.38;99623.41;10276860;28;20227;-69
2023/08/08 13:52:57;;;;;;;2.30;1.27;;;;;;;20.95;35.76;99674.06;10276172;28;20234;-70
2023/08/08 13:57:59;;;;;;;1.40;1.30;;;;;;;22.60;34.67;99643.31;10275612;28;20241;-70
2023/08/08 14:03:02;;;;;;;1.75;1.40;;;;;;;22.39;34.91;99609.69;10273729;28;20235;-68
2023/08/08 14:08:04;;;;;;;1.42;1.27;;;;;;;22.37;35.36;99669.13;10272543;28;20239;-67
2023/08/08 14:13:06;;;;;;;1.50;1.30;;;;;;;21.49;35.44;99602.44;10274801;28;20226;-67
2023/08/08 14:18:08;;;;;;;2.53;1.40;;;;;;;21.41;36.20;99627.41;10274649;28;20749;-68
2023/08/08 14:23:10;;;;;;;3.28;1.40;;;;;;;21.95;35.60;99612.78;10273899;28;20697;-68
2023/08/08 14:28:12;;;;;;;1.38;1.27;;;;;;;22.30;34.95;99595.78;10273369;28;20344;-67
2023/08/08 14:33:15;;;;;;;2.35;1.20;;;;;;;22.76;34.58;99603.25;10273610;28;20231;-67
2023/08/08 14:38:17;;;;;;;1.88;1.23;;;;;;;22.26;35.27;99581.03;10274836;28;20262;-68
2023/08/08 14:43:19;;;;;;;2.17;1.58;;;;;;;23.52;35.02;99581.72;10276409;28;20235;-69
2023/08/08 14:48:21;;;;;;;2.13;1.35;;;;;;;21.18;35.71;99632.06;10274170;28;20258;-68
2023/08/08 14:53:22;;;;;;;1.67;1.35;;;;;;;21.66;35.19;99568.75;10269795;28;21624;-67
2023/08/08 14:58:24;;;;;;;1.58;1.35;;;;;;;20.52;35.74;99670.28;10271854;28;20376;-67
2023/08/08 15:03:27;;;;;;;1.90;1.40;;;;;;;21.98;34.59;99601.34;10274226;28;20955;-70
2023/08/08 15:08:29;;;;;;;1.45;1.15;;;;;;;22.37;34.46;99598.25;10275536;28;20752;-68
2023/08/08 15:13:31;;;;;;;2.80;1.38;;;;;;;21.67;35.59;99557.59;10276778;28;20233;-68
2023/08/08 15:18:33;;;;;;;2.88;1.20;;;;;;;21.70;36.07;99540.72;10273294;28;20249;-69
2023/08/08 15:23:34;;;;;;;1.50;1.40;;;;;;;20.74;36.46;99568.84;10270122;28;20238;-67
2023/08/08 15:28:36;;;;;;;1.40;1.30;;;;;;;22.05;35.34;99560.25;10271861;28;20329;-67
2023/08/08 15:33:38;;;;;;;1.83;1.48;;;;;;;21.61;35.73;99528.72;10269154;28;20235;-66
2023/08/08 15:38:41;;;;;;;3.88;1.42;;;;;;;21.59;35.74;99549.94;10277064;28;20897;-68
2023/08/08 15:43:42;;;;;;;1.30;1.15;;;;;;;21.08;36.32;99607.50;10276090;28;20240;-67
2023/08/08 15:48:44;;;;;;;1.70;1.50;;;;;;;21.67;35.97;99612.06;10272866;28;20242;-68
2023/08/08 15:53:46;;;;;;;1.98;1.50;;;;;;;22.12;35.71;99577.19;10282246;28;20319;-68
2023/08/08 15:58:48;;;;;;;3.47;1.60;;;;;;;21.13;36.20;99623.88;10282620;28;20441;-68
2023/08/08 16:03:50;;;;;;;2.83;1.45;;;;;;;21.63;36.26;99597.34;10281697;28;20770;-68
2023/08/08 16:08:52;;;;;;;1.67;1.42;;;;;;;23.16;35.26;99527.16;10284570;28;20238;-68
2023/08/08 16:13:54;;;;;;;2.20;1.30;;;;;;;22.81;36.23;99529.63;10279403;28;20314;-68
2023/08/08 16:18:55;;;;;;;1.58;1.20;;;;;;;22.72;35.75;99588.50;10276671;28;20238;-69
2023/08/08 16:23:57;;;;;;;8.02;2.15;;;;;;;22.43;36.17;99577.25;10275915;28;20327;-68
2023/08/08 16:28:59;;;;;;;4.13;1.95;;;;;;;22.40;35.64;99592.22;10277358;28;20356;-68
2023/08/08 16:34:01;;;;;;;3.30;1.40;;;;;;;22.19;36.36;99587.81;10276652;28;20245;-68
2023/08/08 16:39:03;;;;;;;3.08;1.50;;;;;;;22.24;37.07;99517.00;10322202;23;20604;-39
2023/08/08 16:44:20;;;;;;;1.95;1.35;;;;;;;21.51;37.38;99597.53;10332926;28;20228;-38
2023/08/08 16:49:22;;;;;;;2.20;1.55;;;;;;;22.60;36.61;99530.69;10360656;28;20749;-38
2023/08/08 16:54:24;;;;;;;1.35;1.25;;;;;;;20.38;39.14;99623.66;10352869;28;20237;-39
2023/08/08 16:59:26;;;;;;;3.28;1.50;;;;;;;21.74;37.85;99570.97;10354891;28;20690;-39
2023/08/08 17:04:27;;;;;;;1.70;1.25;;;;;;;21.39;38.73;99534.28;10358185;28;20241;-39
2023/08/08 17:09:29;;;;;;;1.92;1.50;;;;;;;22.05;38.20;99506.59;10352463;28;20210;-39
2023/08/08 17:14:31;;;;;;;1.55;1.45;;;;;;;21.97;38.60;99547.97;10357197;28;20339;-39
2023/08/08 17:19:33;;;;;;;1.98;1.52;;;;;;;22.07;38.91;99556.16;10356375;28;20644;-39
2023/08/08 17:24:35;;;;;;;2.45;1.52;;;;;;;21.54;38.80;99601.63;10356377;28;20332;-39
2023/08/08 17:29:41;;;;;;;1.70;1.60;;;;;;;21.07;40.08;99575.13;10354232;28;20292;-39
2023/08/08 17:34:43;;;;;;;1.83;1.40;;;;;;;21.15;39.80;99577.38;10356184;28;20230;-39
2023/08/08 17:39:44;;;;;;;1.40;1.30;;;;;;;21.26;38.85;99611.75;10355477;28;20245;-39
2023/08/08 17:44:47;;;;;;;1.70;1.27;;;;;;;21.74;39.27;99517.31;10348849;28;20241;-39
2023/08/08 17:49:49;;;;;;;1.60;1.35;;;;;;;21.95;39.01;99580.09;10347626;28;20216;-39
2023/08/08 17:54:50;;;;;;;1.67;1.58;;;;;;;22.05;38.71;99541.16;10354193;28;20277;-39
2023/08/08 17:59:52;;;;;;;2.92;1.40;;;;;;;22.56;38.21;99532.34;10354844;28;20241;-39
2023/08/08 18:04:54;;;;;;;1.50;1.40;;;;;;;22.16;39.20;99534.66;10355636;28;20240;-39
2023/08/08 18:09:56;;;;;;;2.28;1.38;;;;;;;21.70;39.08;99646.13;10358432;28;20224;-39
2023/08/08 18:14:58;;;;;;;2.60;1.60;;;;;;;21.13;40.52;99579.53;10353972;28;20260;-39
2023/08/08 18:19:59;;;;;;;2.38;1.70;;;;;;;21.73;39.40;99577.53;10356161;28;20229;-39
2023/08/08 18:25:01;;;;;;;2.60;1.88;;;;;;;22.34;38.69;99536.09;10355262;28;21022;-39
2023/08/08 18:30:05;;;;;;;4.15;1.70;;;;;;;21.95;39.71;99545.50;10349350;28;20233;-39
2023/08/08 18:35:07;;;;;;;2.33;1.60;;;;;;;21.97;39.99;99535.16;10353938;28;20568;-39
2023/08/08 18:40:09;;;;;;;1.65;1.55;;;;;;;22.43;39.06;99537.19;10358505;28;20577;-39
2023/08/08 18:45:14;;;;;;;1.88;1.50;;;;;;;21.86;39.37;99604.25;10355110;28;20242;-39
2023/08/08 18:50:15;;;;;;;2.13;1.60;;;;;;;22.05;39.61;99574.69;10353171;28;20963;-40
2023/08/08 18:55:17;;;;;;;3.42;1.83;;;;;;;21.89;40.04;99584.66;10352328;28;20585;-39
2023/08/08 19:00:19;;;;;;;2.83;1.60;;;;;;;22.41;40.11;99565.81;10352970;28;20256;-39
2023/08/08 19:05:23;;;;;;;3.80;2.20;;;;;;;22.78;39.38;99554.72;10348846;28;20265;-39
2023/08/08 19:10:24;;;;;;;5.28;2.17;;;;;;;22.11;40.29;99583.69;10352863;28;20295;-39
2023/08/08 19:15:26;;;;;;;5.10;2.53;;;;;;;22.52;39.50;99562.03;10354565;28;20564;-39
2023/08/08 19:20:28;;;;;;;4.32;1.90;;;;;;;22.28;40.10;99603.38;10356545;28;21054;-39
2023/08/08 19:25:30;;;;;;;5.70;2.63;;;;;;;22.28;39.84;99597.09;10358247;28;20291;-39
2023/08/08 19:30:32;;;;;;;5.78;1.90;;;;;;;22.34;40.07;99588.69;10362777;28;20216;-39
2023/08/08 19:35:34;;;;;;;4.93;2.10;;;;;;;22.39;39.43;99606.16;10367359;28;20287;-39
2023/08/08 19:40:37;;;;;;;3.78;1.98;;;;;;;22.43;39.17;99615.41;10359966;28;20289;-39
2023/08/08 19:45:39;;;;;;;2.72;2.00;;;;;;;22.30;40.14;99595.78;10361749;28;20235;-40
2023/08/08 19:50:41;;;;;;;1.65;1.52;;;;;;;20.68;41.67;99642.19;10357311;28;20230;-40
2023/08/08 19:55:44;;;;;;;2.65;1.85;;;;;;;20.59;42.46;99589.34;10358542;28;20229;-39
2023/08/08 20:00:46;;;;;;;2.22;1.67;;;;;;;20.34;42.50;99595.31;10360964;28;20743;-39
2023/08/08 20:05:48;;;;;;;1.80;1.70;;;;;;;21.82;40.84;99580.56;10363165;28;20233;-39
2023/08/08 20:10:50;;;;;;;2.55;1.70;;;;;;;22.26;39.71;99575.56;10360384;28;20699;-38
2023/08/08 20:15:53;;;;;;;2.22;1.73;;;;;;;21.27;41.37;99602.47;10357624;28;20236;-39
2023/08/08 20:20:54;;;;;;;3.03;1.63;;;;;;;21.70;40.44;99594.38;10357384;28;20316;-39
2023/08/08 20:25:56;;;;;;;2.60;1.40;;;;;;;21.46;40.79;99594.78;10348620;28;20241;-39
2023/08/08 20:30:58;;;;;;;1.80;1.55;;;;;;;20.74;41.71;99636.81;10320115;28;20551;-39
2023/08/08 20:36:00;;;;;;;2.03;1.90;;;;;;;20.64;41.63;99610.34;10303038;28;20253;-39
2023/08/08 20:41:02;;;;;;;3.75;1.90;;;;;;;20.47;42.13;99641.13;10323830;28;20297;-39
2023/08/08 20:46:04;;;;;;;2.70;1.92;;;;;;;21.20;41.17;99580.94;10323037;28;20238;-39
2023/08/08 20:51:06;;;;;;;2.08;1.83;;;;;;;20.68;42.15;99590.53;10334487;28;21074;-39
2023/08/08 20:56:08;;;;;;;3.35;2.03;;;;;;;21.25;41.39;99574.72;10353932;28;20737;-39
2023/08/08 21:01:10;;;;;;;2.85;2.08;;;;;;;21.14;41.50;99575.72;10352659;28;20220;-39
2023/08/08 21:06:11;;;;;;;2.95;1.90;;;;;;;21.16;41.45;99549.91;10351034;28;20321;-39
2023/08/08 21:11:13;;;;;;;4.88;1.98;;;;;;;21.38;41.45;99541.66;10352228;28;20229;-39
2023/08/08 21:16:15;;;;;;;3.58;2.10;;;;;;;19.78;43.36;99602.75;10359604;28;20233;-39
2023/08/08 21:21:17;;;;;;;1.75;1.65;;;;;;;20.37;42.89;99599.44;10359872;28;20616;-39
2023/08/08 21:26:19;;;;;;;4.95;2.10;;;;;;;19.96;43.48;99635.03;10355550;28;20240;-39
2023/08/08 21:31:34;;;;;;;2.08;1.85;;;;;;;20.73;42.85;99538.09;10354374;28;20476;-39
2023/08/08 21:36:36;;;;;;;2.95;1.80;;;;;;;20.62;42.60;99610.59;10362226;28;20241;-39
2023/08/08 21:41:38;;;;;;;5.30;2.00;;;;;;;21.04;42.31;99549.28;10354801;28;20240;-39
2023/08/08 21:46:39;;;;;;;2.15;1.95;;;;;;;20.96;42.68;99558.72;10359794;28;20233;-39
2023/08/08 21:51:41;;;;;;;3.15;1.70;;;;;;;20.47;43.07;99619.38;10358752;28;20632;-39
2023/08/08 21:56:45;;;;;;;2.22;1.60;;;;;;;19.94;44.01;99550.31;10355410;28;20319;-39
2023/08/08 22:01:47;;;;;;;2.45;1.80;;;;;;;19.98;43.87;99548.72;10355754;28;20237;-39
2023/08/08 22:06:48;;;;;;;2.05;1.85;;;;;;;19.98;44.04;99531.59;10352480;28;20238;-38
2023/08/08 22:11:50;;;;;;;2.03;1.63;;;;;;;20.77;42.54;99520.22;10351413;28;20686;-39
2023/08/08 22:16:52;;;;;;;2.40;1.70;;;;;;;19.67;44.31;99552.91;10355271;28;20245;-39
2023/08/08 22:21:54;;;;;;;1.98;1.80;;;;;;;19.67;44.25;99536.63;10353808;28;20746;-38
2023/08/08 22:26:56;;;;;;;1.83;1.73;;;;;;;19.79;43.83;99567.22;10352073;28;20229;-39
2023/08/08 22:31:57;;;;;;;3.65;1.90;;;;;;;19.18;44.56;99608.63;10349085;28;20839;-39
2023/08/08 22:36:59;;;;;;;5.28;2.03;;;;;;;20.56;43.23;99527.34;10353848;28;20667;-39
2023/08/08 22:42:01;;;;;;;4.50;1.60;;;;;;;20.21;43.80;99525.09;10354356;28;20225;-39
2023/08/08 22:47:03;;;;;;;2.13;1.70;;;;;;;20.37;42.80;99572.28;10350620;28;20232;-39
2023/08/08 22:52:05;;;;;;;3.10;2.05;;;;;;;19.61;43.80;99609.03;10346493;28;20275;-39
2023/08/08 22:57:07;;;;;;;2.85;2.10;;;;;;;19.34;45.02;99573.59;10351683;28;20245;-38
2023/08/08 23:02:10;;;;;;;2.35;2.15;;;;;;;19.56;45.53;99614.38;10357421;28;20713;-39
2023/08/08 23:07:11;;;;;;;4.80;2.45;;;;;;;20.46;45.44;99549.00;10351800;28;20291;-39
2023/08/08 23:12:13;;;;;;;2.15;1.95;;;;;;;21.06;43.72;99538.94;10351648;28;20233;-39
2023/08/08 23:17:15;;;;;;;2.92;2.05;;;;;;;21.50;43.76;99527.03;10354182;28;20232;-39
2023/08/08 23:22:17;;;;;;;4.15;2.20;;;;;;;21.53;43.17;99551.81;10359042;28;20244;-39
2023/08/08 23:27:18;;;;;;;3.05;2.10;;;;;;;19.85;45.74;99571.63;10354764;28;20237;-39
2023/08/08 23:32:20;;;;;;;4.82;2.30;;;;;;;19.87;45.46;99555.91;10354089;28;20225;-39